PGT711R LTFJ-LTAY
Flight info
| Callsign | PGT711R |
|---|---|
| Flight time | 0h 38m |
| Altitude | 27000 |
| Route | ROXUK UN617 ERVAG UT305 TEKDO UW78 RESLI |
| Aircraft | A21N/M-SDE3FGHIRWY/LB1 |
Departure
| Time | 2026-04-22 07:23 |
|---|---|
| Airport | Istanbul Sabiha Gökçen International Airport (LTFJ) |
Arrival
| Time | 2026-04-22 08:01 |
|---|---|
| Airport | Çardak Airport (LTAY) |
| Time | Latitude | Longitude | Altitude | Speed | Heading |
|---|---|---|---|---|---|
| 2026-04-22 06:59 | 40.90636 | 29.31736 | 321 ft | 0 kts | 333° |
| 2026-04-22 07:11 | 40.90634 | 29.31738 | 321 ft | 2 kts | 333° |
| 2026-04-22 07:11 | 40.90620 | 29.31746 | 321 ft | 2 kts | 335° |
| 2026-04-22 07:11 | 40.90607 | 29.31754 | 321 ft | 2 kts | 334° |
| 2026-04-22 07:11 | 40.90593 | 29.31763 | 321 ft | 2 kts | 334° |
| 2026-04-22 07:12 | 40.90580 | 29.31772 | 321 ft | 2 kts | 313° |
| 2026-04-22 07:12 | 40.90575 | 29.31789 | 321 ft | 2 kts | 254° |
| 2026-04-22 07:12 | 40.90583 | 29.31805 | 321 ft | 2 kts | 236° |
| 2026-04-22 07:12 | 40.90590 | 29.31823 | 321 ft | 2 kts | 245° |
| 2026-04-22 07:13 | 40.90593 | 29.31833 | 321 ft | 0 kts | 241° |
| 2026-04-22 07:16 | 40.90591 | 29.31828 | 321 ft | 2 kts | 242° |
| 2026-04-22 07:16 | 40.90578 | 29.31792 | 321 ft | 6 kts | 244° |
| 2026-04-22 07:17 | 40.90551 | 29.31721 | 321 ft | 10 kts | 244° |
| 2026-04-22 07:17 | 40.90515 | 29.31621 | 321 ft | 12 kts | 244° |
| 2026-04-22 07:17 | 40.90476 | 29.31512 | 321 ft | 13 kts | 244° |
| 2026-04-22 07:17 | 40.90406 | 29.31443 | 321 ft | 13 kts | 168° |
| 2026-04-22 07:18 | 40.90320 | 29.31494 | 321 ft | 13 kts | 168° |
| 2026-04-22 07:18 | 40.90250 | 29.31422 | 320 ft | 14 kts | 249° |
| 2026-04-22 07:18 | 40.90210 | 29.31304 | 320 ft | 14 kts | 244° |
| 2026-04-22 07:18 | 40.90163 | 29.31185 | 321 ft | 14 kts | 243° |
| 2026-04-22 07:19 | 40.90117 | 29.31063 | 321 ft | 14 kts | 243° |
| 2026-04-22 07:19 | 40.90071 | 29.30938 | 321 ft | 15 kts | 244° |
| 2026-04-22 07:19 | 40.90025 | 29.30808 | 321 ft | 15 kts | 244° |
| 2026-04-22 07:19 | 40.89978 | 29.30678 | 321 ft | 15 kts | 244° |
| 2026-04-22 07:20 | 40.89925 | 29.30539 | 321 ft | 19 kts | 244° |
| 2026-04-22 07:20 | 40.89861 | 29.30362 | 321 ft | 23 kts | 245° |
| 2026-04-22 07:20 | 40.89783 | 29.30150 | 316 ft | 28 kts | 246° |
| 2026-04-22 07:20 | 40.89686 | 29.29905 | 316 ft | 30 kts | 247° |
| 2026-04-22 07:21 | 40.89604 | 29.29671 | 315 ft | 27 kts | 243° |
| 2026-04-22 07:21 | 40.89520 | 29.29440 | 309 ft | 28 kts | 243° |
| 2026-04-22 07:21 | 40.89395 | 29.29261 | 304 ft | 27 kts | 177° |
| 2026-04-22 07:21 | 40.89283 | 29.29338 | 304 ft | 11 kts | 111° |
| 2026-04-22 07:22 | 40.89305 | 29.29433 | 306 ft | 19 kts | 64° |
| 2026-04-22 07:22 | 40.89486 | 29.29919 | 319 ft | 95 kts | 64° |
| 2026-04-22 07:22 | 40.89879 | 29.30970 | 323 ft | 157 kts | 64° |
| 2026-04-22 07:22 | 40.90373 | 29.32389 | 735 ft | 175 kts | 64° |
| 2026-04-22 07:23 | 40.90526 | 29.32830 | 937 ft | 177 kts | 64° |
| 2026-04-22 07:23 | 40.91057 | 29.34298 | 1817 ft | 176 kts | 62° |
| 2026-04-22 07:23 | 40.91604 | 29.35738 | 2511 ft | 185 kts | 62° |
| 2026-04-22 07:23 | 40.91904 | 29.36530 | 2771 ft | 193 kts | 62° |
| 2026-04-22 07:24 | 40.92520 | 29.38169 | 3236 ft | 212 kts | 63° |
| 2026-04-22 07:24 | 40.92982 | 29.40145 | 3693 ft | 237 kts | 86° |
| 2026-04-22 07:24 | 40.92625 | 29.42307 | 4480 ft | 251 kts | 115° |
| 2026-04-22 07:24 | 40.91486 | 29.44084 | 5182 ft | 267 kts | 144° |
| 2026-04-22 07:25 | 40.89807 | 29.45192 | 5996 ft | 275 kts | 155° |
| 2026-04-22 07:25 | 40.88071 | 29.46251 | 6865 ft | 280 kts | 155° |
| 2026-04-22 07:25 | 40.86317 | 29.47351 | 7760 ft | 283 kts | 156° |
| 2026-04-22 07:25 | 40.84544 | 29.48477 | 8652 ft | 285 kts | 157° |
| 2026-04-22 07:26 | 40.82766 | 29.49608 | 9524 ft | 287 kts | 158° |
| 2026-04-22 07:26 | 40.80960 | 29.50754 | 10377 ft | 289 kts | 159° |
| 2026-04-22 07:26 | 40.79108 | 29.51923 | 10894 ft | 303 kts | 159° |
| 2026-04-22 07:26 | 40.77218 | 29.53365 | 11266 ft | 324 kts | 154° |
| 2026-04-22 07:27 | 40.75107 | 29.54494 | 11632 ft | 331 kts | 174° |
| 2026-04-22 07:27 | 40.72759 | 29.54828 | 12016 ft | 344 kts | 180° |
| 2026-04-22 07:27 | 40.70305 | 29.55067 | 12578 ft | 354 kts | 180° |
| 2026-04-22 07:27 | 40.67848 | 29.55386 | 13303 ft | 359 kts | 178° |
| 2026-04-22 07:28 | 40.62788 | 29.56254 | 14654 ft | 371 kts | 176° |
| 2026-04-22 07:28 | 40.60203 | 29.56757 | 15271 ft | 377 kts | 176° |
| 2026-04-22 07:28 | 40.57581 | 29.57295 | 15929 ft | 381 kts | 175° |
| 2026-04-22 07:29 | 40.54970 | 29.57841 | 16553 ft | 385 kts | 175° |
| 2026-04-22 07:29 | 40.52307 | 29.58404 | 17171 ft | 389 kts | 175° |
| 2026-04-22 07:29 | 40.49647 | 29.58971 | 17783 ft | 393 kts | 175° |
| 2026-04-22 07:29 | 40.46914 | 29.59556 | 18378 ft | 397 kts | 175° |
| 2026-04-22 07:30 | 40.44201 | 29.60136 | 18964 ft | 400 kts | 175° |
| 2026-04-22 07:30 | 40.41430 | 29.60729 | 19554 ft | 404 kts | 175° |
| 2026-04-22 07:30 | 40.38653 | 29.61323 | 20115 ft | 408 kts | 175° |
| 2026-04-22 07:30 | 40.35836 | 29.61926 | 20658 ft | 411 kts | 175° |
| 2026-04-22 07:31 | 40.33018 | 29.62530 | 21361 ft | 411 kts | 175° |
| 2026-04-22 07:31 | 40.30212 | 29.63133 | 22134 ft | 408 kts | 176° |
| 2026-04-22 07:31 | 40.27416 | 29.63732 | 22854 ft | 406 kts | 176° |
| 2026-04-22 07:31 | 40.24642 | 29.64324 | 23531 ft | 404 kts | 176° |
| 2026-04-22 07:32 | 40.21903 | 29.64907 | 24176 ft | 404 kts | 176° |
| 2026-04-22 07:32 | 40.19106 | 29.65501 | 24802 ft | 403 kts | 177° |
| 2026-04-22 07:32 | 40.16365 | 29.66082 | 25405 ft | 402 kts | 177° |
| 2026-04-22 07:32 | 40.13580 | 29.66672 | 25909 ft | 404 kts | 177° |
| 2026-04-22 07:33 | 40.10812 | 29.67258 | 26329 ft | 407 kts | 177° |
| 2026-04-22 07:33 | 40.08029 | 29.67847 | 26774 ft | 410 kts | 177° |
| 2026-04-22 07:33 | 40.05183 | 29.68450 | 26937 ft | 412 kts | 177° |
| 2026-04-22 07:33 | 40.02353 | 29.69051 | 26932 ft | 412 kts | 176° |
| 2026-04-22 07:34 | 39.99543 | 29.69647 | 26933 ft | 412 kts | 176° |
| 2026-04-22 07:34 | 39.96672 | 29.70255 | 26931 ft | 412 kts | 176° |
| 2026-04-22 07:34 | 39.93838 | 29.70854 | 26927 ft | 411 kts | 176° |
| 2026-04-22 07:34 | 39.91005 | 29.71522 | 26927 ft | 414 kts | 173° |
| 2026-04-22 07:35 | 39.88206 | 29.72489 | 26927 ft | 418 kts | 168° |
| 2026-04-22 07:35 | 39.85473 | 29.73795 | 26926 ft | 420 kts | 162° |
| 2026-04-22 07:35 | 39.82801 | 29.75283 | 26928 ft | 420 kts | 161° |
| 2026-04-22 07:35 | 39.80141 | 29.76802 | 26932 ft | 420 kts | 161° |
| 2026-04-22 07:36 | 39.77454 | 29.78338 | 26933 ft | 419 kts | 161° |
| 2026-04-22 07:36 | 39.74803 | 29.79844 | 26936 ft | 419 kts | 161° |
| 2026-04-22 07:36 | 39.72120 | 29.81363 | 26940 ft | 419 kts | 161° |
| 2026-04-22 07:36 | 39.69466 | 29.82861 | 26941 ft | 419 kts | 161° |
| 2026-04-22 07:37 | 39.68344 | 29.83493 | 26940 ft | 419 kts | 161° |
| 2026-04-22 07:37 | 39.65670 | 29.84997 | 26940 ft | 418 kts | 161° |
| 2026-04-22 07:37 | 39.63034 | 29.86480 | 26939 ft | 418 kts | 161° |
| 2026-04-22 07:37 | 39.60364 | 29.87980 | 26937 ft | 417 kts | 161° |
| 2026-04-22 07:38 | 39.57702 | 29.89474 | 26937 ft | 418 kts | 161° |
| 2026-04-22 07:38 | 39.55060 | 29.90954 | 26939 ft | 418 kts | 161° |
| 2026-04-22 07:38 | 39.52434 | 29.92424 | 26938 ft | 418 kts | 161° |
| 2026-04-22 07:38 | 39.49793 | 29.93908 | 26940 ft | 418 kts | 161° |
| 2026-04-22 07:39 | 39.47106 | 29.95427 | 26944 ft | 418 kts | 161° |
| 2026-04-22 07:39 | 39.44459 | 29.96924 | 26941 ft | 418 kts | 161° |
| 2026-04-22 07:39 | 39.41808 | 29.98422 | 26942 ft | 419 kts | 161° |
| 2026-04-22 07:39 | 39.39143 | 29.99928 | 26947 ft | 418 kts | 161° |
| 2026-04-22 07:40 | 39.36492 | 30.01423 | 26950 ft | 418 kts | 161° |
| 2026-04-22 07:40 | 39.35098 | 30.02210 | 26950 ft | 418 kts | 161° |
| 2026-04-22 07:40 | 39.34148 | 30.02745 | 26951 ft | 418 kts | 161° |
| 2026-04-22 07:40 | 39.31468 | 30.04257 | 26912 ft | 419 kts | 161° |
| 2026-04-22 07:41 | 39.27907 | 30.06262 | 26546 ft | 416 kts | 161° |
| 2026-04-22 07:41 | 39.26140 | 30.07255 | 26366 ft | 414 kts | 161° |
| 2026-04-22 07:41 | 39.23490 | 30.08747 | 26096 ft | 411 kts | 161° |
| 2026-04-22 07:41 | 39.20906 | 30.10200 | 25832 ft | 409 kts | 161° |
| 2026-04-22 07:42 | 39.18292 | 30.11665 | 25566 ft | 408 kts | 161° |
| 2026-04-22 07:42 | 39.15689 | 30.13124 | 25299 ft | 409 kts | 161° |
| 2026-04-22 07:42 | 39.13096 | 30.14575 | 25032 ft | 409 kts | 161° |
| 2026-04-22 07:42 | 39.10457 | 30.16050 | 24756 ft | 410 kts | 161° |
| 2026-04-22 07:43 | 39.07842 | 30.17341 | 24476 ft | 406 kts | 169° |
| 2026-04-22 07:43 | 39.05081 | 30.18062 | 24203 ft | 400 kts | 179° |
| 2026-04-22 07:43 | 39.02336 | 30.18187 | 23936 ft | 395 kts | 186° |
| 2026-04-22 07:43 | 38.99587 | 30.18088 | 23664 ft | 394 kts | 187° |
| 2026-04-22 07:44 | 38.96874 | 30.17963 | 23393 ft | 394 kts | 187° |
| 2026-04-22 07:44 | 38.94133 | 30.17838 | 23125 ft | 394 kts | 187° |
| 2026-04-22 07:44 | 38.91398 | 30.17722 | 22863 ft | 395 kts | 187° |
| 2026-04-22 07:44 | 38.88642 | 30.17611 | 22594 ft | 396 kts | 187° |
| 2026-04-22 07:45 | 38.85874 | 30.17505 | 22327 ft | 397 kts | 186° |
| 2026-04-22 07:45 | 38.83119 | 30.17403 | 22063 ft | 398 kts | 186° |
| 2026-04-22 07:45 | 38.80363 | 30.17302 | 21799 ft | 398 kts | 186° |
| 2026-04-22 07:45 | 38.77570 | 30.17202 | 21534 ft | 399 kts | 186° |
| 2026-04-22 07:46 | 38.74788 | 30.17101 | 21198 ft | 400 kts | 186° |
| 2026-04-22 07:46 | 38.71077 | 30.16968 | 20571 ft | 401 kts | 186° |
| 2026-04-22 07:46 | 38.69239 | 30.16902 | 20183 ft | 401 kts | 186° |
| 2026-04-22 07:46 | 38.66438 | 30.16801 | 19541 ft | 402 kts | 186° |
| 2026-04-22 07:47 | 38.63661 | 30.16702 | 18993 ft | 400 kts | 186° |
| 2026-04-22 07:47 | 38.60881 | 30.16604 | 18516 ft | 396 kts | 186° |
| 2026-04-22 07:47 | 38.58152 | 30.16509 | 18030 ft | 393 kts | 186° |
| 2026-04-22 07:47 | 38.55441 | 30.16412 | 17540 ft | 390 kts | 186° |
| 2026-04-22 07:48 | 38.52745 | 30.16318 | 17045 ft | 388 kts | 186° |
| 2026-04-22 07:48 | 38.50059 | 30.16222 | 16552 ft | 386 kts | 185° |
| 2026-04-22 07:48 | 38.47389 | 30.16128 | 16061 ft | 383 kts | 186° |
| 2026-04-22 07:48 | 38.44736 | 30.16033 | 15576 ft | 380 kts | 185° |
| 2026-04-22 07:49 | 38.42101 | 30.15940 | 15092 ft | 378 kts | 185° |
| 2026-04-22 07:49 | 38.39487 | 30.15847 | 14613 ft | 375 kts | 185° |
| 2026-04-22 07:49 | 38.36883 | 30.15753 | 14129 ft | 372 kts | 186° |
| 2026-04-22 07:49 | 38.34363 | 30.15284 | 13651 ft | 363 kts | 199° |
| 2026-04-22 07:50 | 38.32025 | 30.14142 | 13173 ft | 357 kts | 209° |
| 2026-04-22 07:50 | 38.29829 | 30.12783 | 12701 ft | 355 kts | 207° |
| 2026-04-22 07:50 | 38.27505 | 30.11669 | 12210 ft | 355 kts | 200° |
| 2026-04-22 07:50 | 38.25104 | 30.10915 | 11728 ft | 355 kts | 195° |
| 2026-04-22 07:51 | 38.22693 | 30.10256 | 11252 ft | 353 kts | 195° |
| 2026-04-22 07:51 | 38.19550 | 30.09443 | 10969 ft | 337 kts | 194° |
| 2026-04-22 07:51 | 38.17300 | 30.08875 | 10892 ft | 322 kts | 194° |
| 2026-04-22 07:51 | 38.15859 | 30.08511 | 10839 ft | 312 kts | 194° |
| 2026-04-22 07:52 | 38.13796 | 30.07991 | 10755 ft | 299 kts | 194° |
| 2026-04-22 07:52 | 38.11807 | 30.07486 | 10675 ft | 285 kts | 195° |
| 2026-04-22 07:52 | 38.09885 | 30.07000 | 10603 ft | 271 kts | 194° |
| 2026-04-22 07:52 | 38.08062 | 30.06536 | 10530 ft | 258 kts | 194° |
| 2026-04-22 07:53 | 38.06337 | 30.06098 | 10355 ft | 256 kts | 194° |
| 2026-04-22 07:53 | 38.04581 | 30.05651 | 10000 ft | 256 kts | 194° |
| 2026-04-22 07:53 | 38.02827 | 30.05205 | 9657 ft | 255 kts | 194° |
| 2026-04-22 07:53 | 38.01083 | 30.04763 | 9318 ft | 253 kts | 194° |
| 2026-04-22 07:54 | 37.99353 | 30.04326 | 8982 ft | 252 kts | 194° |
| 2026-04-22 07:54 | 37.97637 | 30.03892 | 8652 ft | 250 kts | 194° |
| 2026-04-22 07:54 | 37.95925 | 30.03459 | 8322 ft | 248 kts | 194° |
| 2026-04-22 07:54 | 37.94332 | 30.02736 | 7955 ft | 244 kts | 217° |
| 2026-04-22 07:55 | 37.92921 | 30.00592 | 7632 ft | 234 kts | 241° |
| 2026-04-22 07:55 | 37.92406 | 29.99395 | 7475 ft | 231 kts | 243° |
| 2026-04-22 07:55 | 37.91662 | 29.97622 | 7211 ft | 227 kts | 242° |
| 2026-04-22 07:55 | 37.90907 | 29.95910 | 6954 ft | 223 kts | 240° |
| 2026-04-22 07:56 | 37.90130 | 29.94227 | 6694 ft | 219 kts | 239° |
| 2026-04-22 07:56 | 37.89343 | 29.92571 | 6436 ft | 216 kts | 239° |
| 2026-04-22 07:56 | 37.88567 | 29.90962 | 6181 ft | 212 kts | 238° |
| 2026-04-22 07:56 | 37.87810 | 29.89401 | 5910 ft | 209 kts | 238° |
| 2026-04-22 07:57 | 37.87082 | 29.87896 | 5723 ft | 191 kts | 238° |
| 2026-04-22 07:57 | 37.86409 | 29.86503 | 5440 ft | 179 kts | 238° |
| 2026-04-22 07:57 | 37.85791 | 29.85223 | 5210 ft | 165 kts | 238° |
| 2026-04-22 07:57 | 37.85036 | 29.83655 | 4896 ft | 153 kts | 239° |
| 2026-04-22 07:58 | 37.84668 | 29.82890 | 4764 ft | 152 kts | 239° |
| 2026-04-22 07:58 | 37.84114 | 29.81739 | 4572 ft | 152 kts | 239° |
| 2026-04-22 07:58 | 37.83571 | 29.80608 | 4382 ft | 151 kts | 239° |
| 2026-04-22 07:58 | 37.83027 | 29.79474 | 4196 ft | 151 kts | 238° |
| 2026-04-22 07:59 | 37.82487 | 29.78347 | 4004 ft | 150 kts | 238° |
| 2026-04-22 07:59 | 37.81939 | 29.77205 | 3807 ft | 150 kts | 238° |
| 2026-04-22 07:59 | 37.81399 | 29.76079 | 3607 ft | 149 kts | 238° |
| 2026-04-22 07:59 | 37.80864 | 29.74942 | 3397 ft | 149 kts | 239° |
| 2026-04-22 08:00 | 37.80328 | 29.73823 | 3217 ft | 148 kts | 238° |
| 2026-04-22 08:00 | 37.79797 | 29.72722 | 3033 ft | 148 kts | 238° |
| 2026-04-22 08:00 | 37.79095 | 29.71258 | 2793 ft | 140 kts | 239° |
| 2026-04-22 08:00 | 37.78788 | 29.70615 | 2796 ft | 112 kts | 239° |
| 2026-04-22 08:01 | 37.78469 | 29.69943 | 2799 ft | 75 kts | 238° |
| 2026-04-22 08:01 | 37.78229 | 29.69442 | 2803 ft | 59 kts | 239° |
| 2026-04-22 08:01 | 37.78037 | 29.69036 | 2807 ft | 48 kts | 240° |
| 2026-04-22 08:01 | 37.77894 | 29.68734 | 2809 ft | 14 kts | 235° |
| 2026-04-22 08:02 | 37.77779 | 29.68747 | 2809 ft | 14 kts | 148° |
| 2026-04-22 08:02 | 37.77723 | 29.68791 | 2810 ft | 14 kts | 149° |
| 2026-04-22 08:02 | 37.77636 | 29.68857 | 2810 ft | 14 kts | 149° |
| 2026-04-22 08:02 | 37.77554 | 29.68918 | 2810 ft | 12 kts | 148° |
| 2026-04-22 08:03 | 37.77499 | 29.68961 | 2811 ft | 4 kts | 147° |
| 2026-04-22 08:03 | 37.77488 | 29.68971 | 2811 ft | 0 kts | 147° |